createdAt,value
2017-07-21T00:00:01.929Z,0
2017-07-21T00:01:11.255Z,0
2017-07-21T00:02:21.493Z,0
2017-07-21T00:03:31.084Z,0
2017-07-21T00:04:40.714Z,0
2017-07-21T00:05:50.639Z,0
2017-07-21T00:07:00.567Z,0
2017-07-21T00:08:10.470Z,0
2017-07-21T00:09:20.478Z,0
2017-07-21T00:10:30.073Z,0
2017-07-21T00:11:40.297Z,0
2017-07-21T00:12:50.209Z,0
2017-07-21T00:14:00.120Z,0
2017-07-21T00:15:10.209Z,0
2017-07-21T00:16:20.121Z,0
2017-07-21T00:17:30.020Z,0
2017-07-21T00:18:39.305Z,0
2017-07-21T00:19:49.230Z,0
2017-07-21T00:20:59.453Z,0
2017-07-21T00:22:09.688Z,0
2017-07-21T00:23:19.296Z,0
2017-07-21T00:24:28.912Z,0
2017-07-21T00:25:38.514Z,0
2017-07-21T00:26:48.119Z,0
2017-07-21T00:27:58.032Z,0
2017-07-21T00:29:07.956Z,0
2017-07-21T00:30:17.867Z,0
2017-07-21T00:31:27.781Z,0
2017-07-21T00:32:38.073Z,0
2017-07-21T00:33:47.983Z,0
2017-07-21T00:34:57.915Z,0
2017-07-21T00:36:08.141Z,0
2017-07-21T00:37:18.350Z,0
2017-07-21T00:38:28.263Z,0
2017-07-21T00:39:37.869Z,0
2017-07-21T00:40:47.168Z,0
2017-07-21T00:41:57.385Z,0
2017-07-21T00:43:07.598Z,0
2017-07-21T00:44:18.140Z,0
2017-07-21T00:45:28.367Z,0
2017-07-21T00:46:38.273Z,0
2017-07-21T00:47:47.881Z,0
2017-07-21T00:48:57.489Z,0
2017-07-21T00:50:07.151Z,0
2017-07-21T00:51:16.763Z,0
2017-07-21T00:52:26.688Z,0
2017-07-21T00:53:36.599Z,0
2017-07-21T00:54:46.826Z,0
2017-07-21T00:55:56.888Z,0
2017-07-21T00:57:06.805Z,0
2017-07-21T00:58:17.035Z,0
2017-07-21T00:59:27.249Z,0
2017-07-21T01:00:37.477Z,0
2017-07-21T01:01:47.846Z,0
2017-07-21T01:02:57.756Z,0
2017-07-21T01:04:07.696Z,0
2017-07-21T01:05:17.303Z,0
2017-07-21T01:06:27.552Z,0
2017-07-21T01:07:37.777Z,0
2017-07-21T01:08:47.995Z,0
2017-07-21T01:09:57.926Z,0
2017-07-21T01:11:07.533Z,0
2017-07-21T01:12:17.455Z,0
2017-07-21T01:13:27.682Z,0
2017-07-21T01:14:37.292Z,0
2017-07-21T01:15:47.511Z,0
2017-07-21T01:16:57.118Z,0
2017-07-21T01:18:07.034Z,0
2017-07-21T01:19:17.400Z,0
2017-07-21T01:20:27.619Z,0
2017-07-21T01:21:37.547Z,0
2017-07-21T01:22:47.768Z,0
2017-07-21T01:23:58.002Z,0
2017-07-21T01:25:08.067Z,0
2017-07-21T01:26:17.975Z,0
2017-07-21T01:27:27.925Z,0
2017-07-21T01:28:37.529Z,0
2017-07-21T01:29:47.126Z,0
2017-07-21T01:30:57.349Z,0
2017-07-21T01:32:07.270Z,0
2017-07-21T01:33:17.187Z,0
2017-07-21T01:34:27.098Z,0
2017-07-21T01:35:36.699Z,0
2017-07-21T01:36:46.760Z,0
2017-07-21T01:37:56.710Z,0
2017-07-21T01:39:06.317Z,0
2017-07-21T01:40:15.933Z,0
2017-07-21T01:41:25.844Z,0
2017-07-21T01:42:35.160Z,0
2017-07-21T01:43:44.761Z,0
2017-07-21T01:44:54.679Z,0
2017-07-21T01:46:04.313Z,0
2017-07-21T01:47:14.528Z,0
2017-07-21T01:48:24.457Z,0
2017-07-21T01:49:34.062Z,0
2017-07-21T01:50:43.975Z,0
2017-07-21T01:51:53.889Z,0
2017-07-21T01:53:04.113Z,0
2017-07-21T01:54:13.895Z,0
2017-07-21T01:55:23.511Z,0
2017-07-21T01:56:33.419Z,0
2017-07-21T01:57:43.331Z,0
2017-07-21T01:58:53.247Z,0
2017-07-21T02:00:02.700Z,0
2017-07-21T02:01:12.320Z,0
2017-07-21T02:02:22.225Z,0
2017-07-21T02:03:32.451Z,0
2017-07-21T02:04:42.372Z,0
2017-07-21T02:05:52.635Z,0
2017-07-21T02:07:02.547Z,0
2017-07-21T02:08:12.452Z,0
2017-07-21T02:09:22.676Z,0
2017-07-21T02:10:31.991Z,0
2017-07-21T02:11:41.952Z,0
2017-07-21T02:12:51.573Z,0
2017-07-21T02:14:01.489Z,0
2017-07-21T02:15:11.405Z,0
2017-07-21T02:16:21.650Z,0
2017-07-21T02:17:31.565Z,0
2017-07-21T02:18:41.476Z,0
2017-07-21T02:19:51.391Z,0
2017-07-21T02:21:01.305Z,0
2017-07-21T02:22:10.916Z,0
2017-07-21T02:23:20.369Z,0
2017-07-21T02:24:29.988Z,0
2017-07-21T02:25:39.903Z,0
2017-07-21T02:26:50.130Z,0
2017-07-21T02:28:00.368Z,0
2017-07-21T02:29:10.024Z,0
2017-07-21T02:30:19.643Z,0
2017-07-21T02:31:29.868Z,0
2017-07-21T02:32:39.777Z,0
2017-07-21T02:33:49.684Z,0
2017-07-21T02:35:00.086Z,0
2017-07-21T02:36:09.993Z,0
2017-07-21T02:37:19.907Z,0
2017-07-21T02:38:29.522Z,0
2017-07-21T02:39:39.752Z,0
2017-07-21T02:40:49.051Z,0
2017-07-21T02:41:59.265Z,0
2017-07-21T02:43:08.875Z,0
2017-07-21T02:44:18.485Z,0
2017-07-21T02:45:28.459Z,0
2017-07-21T02:46:38.674Z,0
2017-07-21T02:47:48.589Z,0
2017-07-21T02:48:58.818Z,0
2017-07-21T02:50:09.064Z,0
2017-07-21T02:51:18.987Z,0
2017-07-21T02:52:29.223Z,0
2017-07-21T02:53:39.146Z,0
2017-07-21T02:54:49.400Z,0
2017-07-21T02:55:59.009Z,0
2017-07-21T02:57:09.260Z,0
2017-07-21T02:58:19.175Z,0
2017-07-21T02:59:29.401Z,0
2017-07-21T03:00:39.319Z,0
2017-07-21T03:01:48.933Z,0
2017-07-21T03:02:58.543Z,0
2017-07-21T03:04:08.157Z,0
2017-07-21T03:05:18.075Z,0
2017-07-21T03:06:28.344Z,0
2017-07-21T03:07:37.962Z,0
2017-07-21T03:08:47.580Z,0
2017-07-21T03:09:57.937Z,0
2017-07-21T03:11:08.182Z,0
2017-07-21T03:12:18.404Z,0
2017-07-21T03:13:28.313Z,0
2017-07-21T03:14:38.219Z,0
2017-07-21T03:15:48.436Z,0
2017-07-21T03:16:58.346Z,0
2017-07-21T03:18:08.593Z,0
2017-07-21T03:19:19.027Z,0
2017-07-21T03:20:28.023Z,0
2017-07-21T03:21:37.937Z,0
2017-07-21T03:22:48.157Z,0
2017-07-21T03:23:58.062Z,0
2017-07-21T03:25:08.017Z,0
2017-07-21T03:26:18.240Z,0
2017-07-21T03:27:27.851Z,0
2017-07-21T03:28:37.760Z,0
2017-07-21T03:29:47.675Z,0
2017-07-21T03:30:57.281Z,0
2017-07-21T03:32:07.181Z,0
2017-07-21T03:33:17.396Z,0
2017-07-21T03:34:27.007Z,0
2017-07-21T03:35:36.937Z,0
2017-07-21T03:36:47.160Z,0
2017-07-21T03:37:56.758Z,0
2017-07-21T03:39:06.676Z,0
2017-07-21T03:40:16.599Z,0
2017-07-21T03:41:26.213Z,0
2017-07-21T03:42:35.832Z,0
2017-07-21T03:43:46.050Z,0
2017-07-21T03:44:55.656Z,0
2017-07-21T03:46:05.867Z,0
2017-07-21T03:47:16.077Z,0
2017-07-21T03:48:26.285Z,0
2017-07-21T03:49:36.505Z,0
2017-07-21T03:50:45.848Z,0
2017-07-21T03:51:55.761Z,0
2017-07-21T03:53:06.007Z,0
2017-07-21T03:54:15.922Z,0
2017-07-21T03:55:26.140Z,0
2017-07-21T03:56:36.084Z,0
2017-07-21T03:57:46.311Z,0
2017-07-21T03:58:56.529Z,0
2017-07-21T04:00:06.143Z,0
2017-07-21T04:01:15.751Z,0
2017-07-21T04:02:25.657Z,0
2017-07-21T04:03:35.881Z,0
2017-07-21T04:04:45.806Z,0
2017-07-21T04:05:55.103Z,0
2017-07-21T04:07:04.706Z,0
2017-07-21T04:08:14.925Z,0
2017-07-21T04:09:24.552Z,0
2017-07-21T04:10:34.462Z,0
2017-07-21T04:11:44.422Z,5
2017-07-21T04:12:54.692Z,5
2017-07-21T04:14:04.611Z,5
2017-07-21T04:15:14.844Z,5
2017-07-21T04:16:24.772Z,5
2017-07-21T04:17:34.753Z,5
2017-07-21T04:18:44.974Z,5
2017-07-21T04:19:54.906Z,5
2017-07-21T04:21:04.246Z,5
2017-07-21T04:22:13.849Z,5
2017-07-21T04:23:23.451Z,5
2017-07-21T04:24:33.145Z,5
2017-07-21T04:25:42.866Z,5
2017-07-21T04:26:52.800Z,5
2017-07-21T04:28:02.429Z,5
2017-07-21T04:29:12.346Z,5
2017-07-21T04:30:22.578Z,5
2017-07-21T04:31:32.799Z,5
2017-07-21T04:32:42.416Z,5
2017-07-21T04:33:52.647Z,5
2017-07-21T04:35:02.251Z,5
2017-07-21T04:36:11.866Z,5
2017-07-21T04:37:21.463Z,10
2017-07-21T04:38:31.396Z,10
2017-07-21T04:39:41.315Z,10
2017-07-21T04:40:50.619Z,10
2017-07-21T04:42:00.864Z,10
2017-07-21T04:43:11.091Z,10
2017-07-21T04:44:21.017Z,10
2017-07-21T04:45:30.945Z,10
2017-07-21T04:46:41.167Z,10
2017-07-21T04:47:51.110Z,10
2017-07-21T04:49:00.782Z,10
2017-07-21T04:50:11.010Z,10
2017-07-21T04:51:21.243Z,10
2017-07-21T04:52:31.168Z,10
2017-07-21T04:53:41.405Z,10
2017-07-21T04:54:51.345Z,10
2017-07-21T04:56:01.261Z,10
2017-07-21T04:57:11.186Z,10
2017-07-21T04:58:21.099Z,10
2017-07-21T04:59:31.017Z,10
2017-07-21T05:00:40.315Z,10
2017-07-21T05:01:49.957Z,10
2017-07-21T05:03:00.174Z,10
2017-07-21T05:04:10.417Z,10
2017-07-21T05:05:20.641Z,15
2017-07-21T05:06:30.568Z,15
2017-07-21T05:07:40.789Z,15
2017-07-21T05:08:50.425Z,15
2017-07-21T05:10:00.078Z,15
2017-07-21T05:11:10.026Z,15
2017-07-21T05:12:19.970Z,15
2017-07-21T05:13:29.884Z,15
2017-07-21T05:14:39.795Z,20
2017-07-21T05:15:49.419Z,20
2017-07-21T05:16:59.577Z,20
2017-07-21T05:18:09.531Z,20
2017-07-21T05:19:19.772Z,25
2017-07-21T05:20:30.017Z,30
2017-07-21T05:21:40.256Z,35
2017-07-21T05:22:50.197Z,35
2017-07-21T05:24:00.140Z,40
2017-07-21T05:25:10.387Z,40
2017-07-21T05:26:19.997Z,40
2017-07-21T05:27:30.233Z,45
2017-07-21T05:28:39.885Z,45
2017-07-21T05:29:49.817Z,45
2017-07-21T05:31:00.042Z,45
2017-07-21T05:32:10.010Z,45
2017-07-21T05:33:19.925Z,45
2017-07-21T05:34:30.158Z,45
2017-07-21T05:35:40.405Z,45
2017-07-21T05:36:50.334Z,45
2017-07-21T05:37:59.688Z,45
2017-07-21T05:39:09.602Z,50
2017-07-21T05:40:19.831Z,50
2017-07-21T05:41:29.442Z,50
2017-07-21T05:42:39.366Z,55
2017-07-21T05:43:48.978Z,55
2017-07-21T05:44:58.909Z,55
2017-07-21T05:46:08.897Z,55
2017-07-21T05:47:18.826Z,60
2017-07-21T05:48:28.430Z,60
2017-07-21T05:49:38.350Z,80
2017-07-21T05:50:48.582Z,80
2017-07-21T05:51:58.506Z,70
2017-07-21T05:53:08.439Z,60
2017-07-21T05:54:18.355Z,65
2017-07-21T05:55:28.587Z,65
2017-07-21T05:56:38.256Z,65
2017-07-21T05:57:47.863Z,65
2017-07-21T05:58:57.775Z,65
2017-07-21T06:00:07.092Z,65
2017-07-21T06:01:17.010Z,70
2017-07-21T06:02:26.930Z,70
2017-07-21T06:03:36.531Z,70
2017-07-21T06:04:46.755Z,70
2017-07-21T06:05:56.674Z,75
2017-07-21T06:07:06.614Z,75
2017-07-21T06:08:16.577Z,75
2017-07-21T06:09:26.189Z,75
2017-07-21T06:10:36.292Z,75
2017-07-21T06:11:46.211Z,75
2017-07-21T06:12:56.162Z,80
2017-07-21T06:14:05.794Z,80
2017-07-21T06:15:16.019Z,80
2017-07-21T06:16:25.976Z,80
2017-07-21T06:17:36.259Z,80
2017-07-21T06:18:46.220Z,80
2017-07-21T06:19:56.130Z,80
2017-07-21T06:21:06.376Z,80
2017-07-21T06:22:16.315Z,80
2017-07-21T06:23:25.926Z,80
2017-07-21T06:24:35.848Z,80
2017-07-21T06:25:44.844Z,85
2017-07-21T06:26:54.761Z,85
2017-07-21T06:28:04.980Z,85
2017-07-21T06:29:14.918Z,85
2017-07-21T06:30:24.851Z,90
2017-07-21T06:31:35.083Z,90
2017-07-21T06:32:45.002Z,95
2017-07-21T06:33:54.609Z,135
2017-07-21T06:35:04.546Z,175
2017-07-21T06:36:14.173Z,365
2017-07-21T06:37:23.859Z,510
2017-07-21T06:38:34.142Z,345
2017-07-21T06:39:43.742Z,360
2017-07-21T06:40:53.971Z,405
2017-07-21T06:42:03.901Z,250
2017-07-21T06:43:13.844Z,125
2017-07-21T06:44:24.086Z,55
2017-07-21T06:45:34.313Z,35
2017-07-21T06:46:44.236Z,35
2017-07-21T06:47:54.167Z,35
2017-07-21T06:49:04.404Z,35
2017-07-21T06:50:14.640Z,35
2017-07-21T06:51:24.579Z,35
2017-07-21T06:52:34.206Z,35
2017-07-21T06:53:43.515Z,35
2017-07-21T06:54:53.134Z,35
2017-07-21T06:56:02.482Z,40
2017-07-21T06:57:12.449Z,40
2017-07-21T06:58:22.382Z,45
2017-07-21T06:59:32.308Z,50
2017-07-21T07:00:41.927Z,60
2017-07-21T07:01:51.556Z,130
2017-07-21T07:03:01.180Z,255
2017-07-21T07:04:11.459Z,380
2017-07-21T07:05:21.697Z,650
2017-07-21T07:06:31.964Z,765
2017-07-21T07:07:41.635Z,735
2017-07-21T07:08:51.554Z,830
2017-07-21T07:10:01.800Z,870
2017-07-21T07:11:12.025Z,815
2017-07-21T07:12:21.949Z,835
2017-07-21T07:13:31.893Z,820
2017-07-21T07:14:41.578Z,810
2017-07-21T07:15:51.504Z,820
2017-07-21T07:17:01.451Z,820
2017-07-21T07:18:11.726Z,885
2017-07-21T07:19:21.646Z,830
2017-07-21T07:20:31.877Z,345
2017-07-21T07:21:41.793Z,265
2017-07-21T07:22:51.754Z,190
2017-07-21T07:24:01.669Z,120
2017-07-21T07:25:11.627Z,140
2017-07-21T07:26:21.565Z,310
2017-07-21T07:27:31.490Z,160
2017-07-21T07:28:41.119Z,90
2017-07-21T07:29:50.721Z,230
2017-07-21T07:31:00.672Z,545
2017-07-21T07:32:09.996Z,470
2017-07-21T07:33:19.932Z,165
2017-07-21T07:34:30.148Z,315
2017-07-21T07:35:40.082Z,180
2017-07-21T07:36:50.002Z,530
2017-07-21T07:37:59.938Z,190
2017-07-21T07:39:09.552Z,105
2017-07-21T07:40:19.473Z,125
2017-07-21T07:41:29.697Z,95
2017-07-21T07:42:39.606Z,90
2017-07-21T07:43:49.209Z,125
2017-07-21T07:44:58.829Z,115
2017-07-21T07:46:08.434Z,85
2017-07-21T07:47:18.655Z,70
2017-07-21T07:48:28.872Z,115
2017-07-21T07:49:38.807Z,95
2017-07-21T07:50:48.724Z,70
2017-07-21T07:51:58.948Z,70
2017-07-21T07:53:08.558Z,70
2017-07-21T07:54:18.485Z,75
2017-07-21T07:55:28.401Z,970
2017-07-21T07:56:38.337Z,110
2017-07-21T07:57:47.940Z,85
2017-07-21T07:58:57.561Z,160
2017-07-21T08:00:07.174Z,980
2017-07-21T08:01:17.098Z,1110
2017-07-21T08:02:27.005Z,1095
2017-07-21T08:03:37.401Z,1000
2017-07-21T08:04:47.337Z,1035
2017-07-21T08:05:56.646Z,1170
2017-07-21T08:07:05.952Z,1115
2017-07-21T08:08:16.179Z,1035
2017-07-21T08:09:26.408Z,1005
2017-07-21T08:10:36.344Z,985
2017-07-21T08:11:46.283Z,1025
2017-07-21T08:12:56.195Z,1010
2017-07-21T08:14:05.814Z,1160
2017-07-21T08:15:15.427Z,415
2017-07-21T08:16:25.366Z,355
2017-07-21T08:17:34.982Z,455
2017-07-21T08:18:45.209Z,1045
2017-07-21T08:19:55.118Z,710
2017-07-21T08:21:05.042Z,980
2017-07-21T08:22:15.298Z,1040
2017-07-21T08:23:25.530Z,1180
2017-07-21T08:24:35.444Z,1225
2017-07-21T08:25:45.661Z,1285
2017-07-21T08:26:55.271Z,1285
2017-07-21T08:28:04.884Z,1295
2017-07-21T08:29:15.129Z,1365
2017-07-21T08:30:25.041Z,190
2017-07-21T08:31:35.279Z,250
2017-07-21T08:32:45.528Z,1295
2017-07-21T08:33:55.199Z,420
2017-07-21T08:35:04.828Z,1125
2017-07-21T08:36:14.458Z,235
2017-07-21T08:37:24.708Z,1385
2017-07-21T08:38:34.945Z,495
2017-07-21T08:39:44.878Z,1355
2017-07-21T08:40:54.806Z,1410
2017-07-21T08:42:04.734Z,1275
2017-07-21T08:43:14.667Z,1325
2017-07-21T08:44:24.304Z,1330
2017-07-21T08:45:34.233Z,1305
2017-07-21T08:46:43.855Z,1245
2017-07-21T08:47:53.163Z,1255
2017-07-21T08:49:03.119Z,1310
2017-07-21T08:50:12.794Z,1320
2017-07-21T08:51:22.714Z,1290
2017-07-21T08:52:32.633Z,1380
2017-07-21T08:53:42.559Z,1280
2017-07-21T08:54:52.474Z,1150
2017-07-21T08:56:02.412Z,1165
2017-07-21T08:57:12.331Z,1095
2017-07-21T08:58:22.574Z,1200
2017-07-21T08:59:32.799Z,1210
2017-07-21T09:00:42.757Z,1145
2017-07-21T09:01:53.009Z,675
2017-07-21T09:03:02.314Z,180
2017-07-21T09:04:12.266Z,100
2017-07-21T09:05:22.502Z,80
2017-07-21T09:06:32.455Z,70
2017-07-21T09:07:42.138Z,60
2017-07-21T09:08:52.377Z,55
2017-07-21T09:10:02.606Z,50
2017-07-21T09:11:12.531Z,45
2017-07-21T09:12:21.858Z,45
2017-07-21T09:13:31.791Z,40
2017-07-21T09:14:41.705Z,40
2017-07-21T09:15:51.310Z,35
2017-07-21T09:17:00.951Z,35
2017-07-21T09:18:11.183Z,35
2017-07-21T09:19:21.103Z,35
2017-07-21T09:20:30.716Z,35
2017-07-21T09:21:40.641Z,35
2017-07-21T09:22:50.275Z,35
2017-07-21T09:24:00.499Z,35
2017-07-21T09:25:10.417Z,30
2017-07-21T09:26:20.031Z,30
2017-07-21T09:27:29.952Z,30
2017-07-21T09:28:40.017Z,30
2017-07-21T09:29:50.264Z,30
2017-07-21T09:31:00.485Z,30
2017-07-21T09:32:10.398Z,30
2017-07-21T09:33:19.411Z,30
2017-07-21T09:34:29.036Z,30
2017-07-21T09:35:38.666Z,30
2017-07-21T09:36:47.981Z,30
2017-07-21T09:37:57.614Z,30
2017-07-21T09:39:07.268Z,30
2017-07-21T09:40:17.191Z,30
2017-07-21T09:41:26.554Z,30
2017-07-21T09:42:36.465Z,30
2017-07-21T09:43:46.397Z,30
2017-07-21T09:44:56.328Z,30
2017-07-21T09:46:06.276Z,30
2017-07-21T09:47:16.512Z,25
2017-07-21T09:48:26.768Z,25
2017-07-21T09:49:37.008Z,25
2017-07-21T09:50:46.343Z,30
2017-07-21T09:51:56.268Z,25
2017-07-21T09:53:06.493Z,30
2017-07-21T09:54:16.422Z,25
2017-07-21T09:55:26.341Z,20
2017-07-21T09:56:36.280Z,30
2017-07-21T09:57:46.191Z,30
2017-07-21T09:58:56.107Z,30
2017-07-21T10:00:05.741Z,30
2017-07-21T10:01:15.666Z,30
2017-07-21T10:02:25.888Z,30
2017-07-21T10:03:36.126Z,25
2017-07-21T10:04:45.443Z,25
2017-07-21T10:05:55.038Z,25
2017-07-21T10:07:04.977Z,25
2017-07-21T10:08:15.196Z,25
2017-07-21T10:09:25.115Z,25
2017-07-21T10:10:35.041Z,25
2017-07-21T10:11:44.957Z,25
2017-07-21T10:12:54.863Z,25
2017-07-21T10:14:04.777Z,25
2017-07-21T10:15:14.699Z,25
2017-07-21T10:16:24.617Z,25
2017-07-21T10:17:33.920Z,25
2017-07-21T10:18:43.250Z,25
2017-07-21T10:19:52.876Z,25
2017-07-21T10:21:02.809Z,25
2017-07-21T10:22:12.717Z,25
2017-07-21T10:23:22.636Z,25
2017-07-21T10:24:31.929Z,25
2017-07-21T10:25:41.861Z,25
2017-07-21T10:26:51.807Z,25
2017-07-21T10:28:04.847Z,25
2017-07-21T10:29:14.978Z,20
2017-07-21T10:30:24.617Z,20
2017-07-21T10:31:34.849Z,20
2017-07-21T10:32:44.474Z,20
2017-07-21T10:33:54.422Z,20
2017-07-21T10:35:04.648Z,20
2017-07-21T10:36:14.570Z,20
2017-07-21T10:37:24.789Z,20
2017-07-21T10:38:34.249Z,20
2017-07-21T10:39:44.174Z,20
2017-07-21T10:40:54.098Z,20
2017-07-21T10:42:04.325Z,20
2017-07-21T10:43:14.273Z,20
2017-07-21T10:44:24.490Z,20
2017-07-21T10:45:34.728Z,20
2017-07-21T10:46:44.649Z,20
2017-07-21T10:47:54.268Z,20
2017-07-21T10:49:04.492Z,20
2017-07-21T10:50:14.712Z,20
2017-07-21T10:51:24.623Z,20
2017-07-21T10:52:34.560Z,20
2017-07-21T10:53:44.173Z,20
2017-07-21T10:54:54.417Z,20
2017-07-21T10:56:04.655Z,20
2017-07-21T10:57:14.873Z,20
2017-07-21T10:58:25.102Z,20
2017-07-21T10:59:35.039Z,20
2017-07-21T11:00:43.732Z,20
2017-07-21T11:01:53.653Z,20
2017-07-21T11:03:03.572Z,20
2017-07-21T11:04:13.485Z,20
2017-07-21T11:05:23.411Z,20
2017-07-21T11:06:33.636Z,25
2017-07-21T11:07:43.583Z,20
2017-07-21T11:08:53.199Z,20
2017-07-21T11:10:03.116Z,20
2017-07-21T11:11:13.344Z,20
2017-07-21T11:12:23.570Z,20
2017-07-21T11:13:33.787Z,20
2017-07-21T11:14:44.012Z,20
2017-07-21T11:15:53.620Z,20
2017-07-21T11:17:03.233Z,20
2017-07-21T11:18:12.843Z,20
2017-07-21T11:19:22.761Z,20
2017-07-21T11:20:32.690Z,20
2017-07-21T11:21:42.309Z,20
2017-07-21T11:22:52.231Z,20
2017-07-21T11:24:02.136Z,20
2017-07-21T11:25:11.426Z,20
2017-07-21T11:26:21.068Z,20
2017-07-21T11:27:31.295Z,20
2017-07-21T11:28:41.211Z,20
2017-07-21T11:29:51.487Z,20
2017-07-21T11:31:01.729Z,20
2017-07-21T11:32:11.694Z,20
2017-07-21T11:33:21.323Z,20
2017-07-21T11:34:30.945Z,20
2017-07-21T11:35:41.164Z,20
2017-07-21T11:36:51.094Z,20
2017-07-21T11:38:00.711Z,20
2017-07-21T11:39:10.943Z,20
2017-07-21T11:40:21.244Z,20
2017-07-21T11:41:31.158Z,20
2017-07-21T11:42:40.805Z,20
2017-07-21T11:43:50.419Z,15
2017-07-21T11:45:00.365Z,20
2017-07-21T11:46:10.268Z,20
2017-07-21T11:47:20.188Z,20
2017-07-21T11:48:29.491Z,20
2017-07-21T11:49:39.410Z,20
2017-07-21T11:50:49.332Z,20
2017-07-21T11:51:59.265Z,20
2017-07-21T11:53:08.911Z,25
2017-07-21T11:54:18.874Z,25
2017-07-21T11:55:28.789Z,25
2017-07-21T11:56:39.045Z,20
2017-07-21T11:57:49.291Z,20
2017-07-21T11:58:59.893Z,25
2017-07-21T12:00:09.501Z,25
2017-07-21T12:01:19.752Z,25
2017-07-21T12:02:29.386Z,25
2017-07-21T12:03:39.010Z,20
2017-07-21T12:04:49.270Z,20
2017-07-21T12:05:59.669Z,20
2017-07-21T12:07:09.881Z,20
2017-07-21T12:08:20.094Z,15
2017-07-21T12:09:30.016Z,15
2017-07-21T12:10:39.957Z,15
2017-07-21T12:11:50.403Z,20
2017-07-21T12:13:00.387Z,20
2017-07-21T12:14:10.029Z,20
2017-07-21T12:15:19.957Z,15
2017-07-21T12:16:29.899Z,15
2017-07-21T12:17:39.816Z,20
2017-07-21T12:18:50.051Z,20
2017-07-21T12:19:59.964Z,20
2017-07-21T12:21:09.880Z,20
2017-07-21T12:22:20.116Z,20
2017-07-21T12:23:29.729Z,20
2017-07-21T12:24:39.661Z,20
2017-07-21T12:25:49.581Z,15
2017-07-21T12:26:59.201Z,15
2017-07-21T12:28:09.116Z,15
2017-07-21T12:29:19.042Z,15
2017-07-21T12:30:28.955Z,15
2017-07-21T12:31:39.207Z,15
2017-07-21T12:32:49.126Z,20
2017-07-21T12:33:59.350Z,20
2017-07-21T12:35:09.265Z,20
2017-07-21T12:36:19.183Z,20
2017-07-21T12:37:29.110Z,15
2017-07-21T12:38:39.326Z,15
2017-07-21T12:39:49.269Z,15
2017-07-21T12:40:59.340Z,15
2017-07-21T12:42:21.702Z,15
2017-07-21T12:43:31.614Z,15
2017-07-21T12:44:41.531Z,15
2017-07-21T12:45:51.436Z,15
2017-07-21T12:47:00.755Z,15
2017-07-21T12:48:10.696Z,15
2017-07-21T12:49:20.613Z,15
2017-07-21T12:50:30.225Z,15
2017-07-21T12:51:40.155Z,15
2017-07-21T12:52:50.428Z,15
2017-07-21T12:54:00.656Z,15
2017-07-21T12:55:09.949Z,15
2017-07-21T12:56:19.867Z,15
2017-07-21T12:57:29.788Z,15
2017-07-21T12:58:40.004Z,15
2017-07-21T12:59:49.631Z,15
2017-07-21T13:00:59.622Z,15
2017-07-21T13:02:09.551Z,20
2017-07-21T13:03:19.781Z,15
2017-07-21T13:04:29.408Z,15
2017-07-21T13:05:39.381Z,15
2017-07-21T13:06:49.298Z,15
2017-07-21T13:07:59.545Z,15
2017-07-21T13:09:09.800Z,15
2017-07-21T13:10:20.045Z,10
2017-07-21T13:11:29.652Z,15
2017-07-21T13:12:39.584Z,15
2017-07-21T13:13:49.500Z,15
2017-07-21T13:14:59.716Z,15
2017-07-21T13:16:09.033Z,15
2017-07-21T13:17:18.644Z,15
2017-07-21T13:18:28.876Z,15
2017-07-21T13:19:38.484Z,15
2017-07-21T13:20:48.096Z,15
2017-07-21T13:21:57.750Z,15
2017-07-21T13:23:07.968Z,15
2017-07-21T13:24:17.276Z,15
2017-07-21T13:25:27.187Z,15
2017-07-21T13:26:36.492Z,15
2017-07-21T13:27:46.110Z,15
2017-07-21T13:28:56.021Z,15
2017-07-21T13:30:05.628Z,15
2017-07-21T13:31:15.268Z,15
2017-07-21T13:32:24.878Z,15
2017-07-21T13:33:35.103Z,15
2017-07-21T13:34:45.335Z,15
2017-07-21T13:35:55.256Z,15
2017-07-21T13:37:05.481Z,15
2017-07-21T13:38:15.710Z,15
2017-07-21T13:39:25.937Z,15
2017-07-21T13:40:36.159Z,15
2017-07-21T13:41:46.084Z,15
2017-07-21T13:42:56.019Z,15
2017-07-21T13:44:05.942Z,15
2017-07-21T13:45:16.176Z,15
2017-07-21T13:46:26.097Z,15
2017-07-21T13:47:36.310Z,15
2017-07-21T13:48:46.239Z,15
2017-07-21T13:49:56.459Z,15
2017-07-21T13:51:06.720Z,15
2017-07-21T13:52:16.635Z,15
2017-07-21T13:53:25.934Z,15
2017-07-21T13:54:36.152Z,15
2017-07-21T13:55:45.751Z,15
2017-07-21T13:56:55.654Z,15
2017-07-21T13:58:05.875Z,15
2017-07-21T13:59:15.475Z,15
2017-07-21T14:00:25.075Z,15
2017-07-21T14:01:35.013Z,15
2017-07-21T14:02:45.236Z,15
2017-07-21T14:03:55.141Z,15
2017-07-21T14:05:05.068Z,15
2017-07-21T14:06:14.673Z,15
2017-07-21T14:07:24.899Z,15
2017-07-21T14:08:35.110Z,15
2017-07-21T14:09:45.035Z,15
2017-07-21T14:10:54.692Z,15
2017-07-21T14:12:03.995Z,15
2017-07-21T14:13:13.928Z,15
2017-07-21T14:14:23.851Z,15
2017-07-21T14:15:33.464Z,15
2017-07-21T14:16:43.409Z,15
2017-07-21T14:17:53.328Z,15
2017-07-21T14:19:03.271Z,15
2017-07-21T14:20:13.184Z,15
2017-07-21T14:21:23.103Z,15
2017-07-21T14:22:33.332Z,15
2017-07-21T14:23:43.553Z,15
2017-07-21T14:24:53.481Z,20
2017-07-21T14:26:03.702Z,20
2017-07-21T14:27:13.614Z,20
2017-07-21T14:28:22.919Z,20
2017-07-21T14:29:32.818Z,15
2017-07-21T14:30:42.122Z,15
2017-07-21T14:31:52.340Z,15
2017-07-21T14:33:02.261Z,15
2017-07-21T14:34:12.195Z,15
2017-07-21T14:35:22.424Z,10
2017-07-21T14:36:32.391Z,10
2017-07-21T14:37:42.612Z,10
2017-07-21T14:38:52.220Z,10
2017-07-21T14:40:02.130Z,10
2017-07-21T14:41:12.357Z,15
2017-07-21T14:42:22.279Z,15
2017-07-21T14:43:32.497Z,15
2017-07-21T14:44:42.430Z,10
2017-07-21T14:45:52.371Z,15
2017-07-21T14:47:02.292Z,15
2017-07-21T14:48:11.296Z,15
2017-07-21T14:49:21.502Z,15
2017-07-21T14:50:31.102Z,10
2017-07-21T14:51:41.015Z,15
2017-07-21T14:52:50.922Z,15
2017-07-21T14:54:01.128Z,15
2017-07-21T14:55:11.348Z,15
2017-07-21T14:56:20.640Z,15
2017-07-21T14:57:30.575Z,15
2017-07-21T14:58:40.789Z,15
2017-07-21T14:59:50.086Z,15
2017-07-21T15:00:59.692Z,10
2017-07-21T15:02:09.609Z,10
2017-07-21T15:03:19.521Z,15
2017-07-21T15:04:29.127Z,15
2017-07-21T15:05:38.747Z,15
2017-07-21T15:06:48.974Z,10
2017-07-21T15:07:58.579Z,10
2017-07-21T15:09:08.806Z,10
2017-07-21T15:10:18.405Z,10
2017-07-21T15:11:28.638Z,10
2017-07-21T15:12:38.546Z,10
2017-07-21T15:13:48.494Z,15
2017-07-21T15:14:58.730Z,15
2017-07-21T15:16:08.346Z,10
2017-07-21T15:17:18.264Z,10
2017-07-21T15:18:28.175Z,10
2017-07-21T15:19:37.468Z,10
2017-07-21T15:20:47.681Z,10
2017-07-21T15:21:57.908Z,10
2017-07-21T15:23:07.830Z,10
2017-07-21T15:24:16.834Z,15
2017-07-21T15:25:26.754Z,10
2017-07-21T15:26:36.661Z,10
2017-07-21T15:27:46.573Z,10
2017-07-21T15:28:56.480Z,10
2017-07-21T15:30:06.386Z,15
2017-07-21T15:31:16.021Z,15
2017-07-21T15:32:25.941Z,10
2017-07-21T15:33:36.187Z,10
2017-07-21T15:34:46.127Z,10
2017-07-21T15:35:55.436Z,10
2017-07-21T15:37:05.357Z,10
2017-07-21T15:38:14.958Z,10
2017-07-21T15:39:25.186Z,10
2017-07-21T15:40:35.096Z,10
2017-07-21T15:41:45.033Z,10
2017-07-21T15:42:54.643Z,10
2017-07-21T15:44:04.263Z,10
2017-07-21T15:45:14.173Z,10
2017-07-21T15:46:24.106Z,15
2017-07-21T15:47:34.332Z,10
2017-07-21T15:48:43.950Z,10
2017-07-21T15:49:53.860Z,10
2017-07-21T15:51:03.787Z,10
2017-07-21T15:52:13.403Z,10
2017-07-21T15:53:23.003Z,10
2017-07-21T15:54:32.610Z,10
2017-07-21T15:55:42.544Z,10
2017-07-21T15:56:52.444Z,15
2017-07-21T15:58:02.667Z,10
2017-07-21T15:59:12.894Z,10
2017-07-21T16:00:22.495Z,10
2017-07-21T16:01:32.716Z,10
2017-07-21T16:02:42.340Z,10
2017-07-21T16:03:51.949Z,10
2017-07-21T16:05:01.862Z,10
2017-07-21T16:06:11.775Z,15
2017-07-21T16:07:21.382Z,10
2017-07-21T16:08:30.990Z,10
2017-07-21T16:09:40.596Z,10
2017-07-21T16:10:50.818Z,10
2017-07-21T16:12:00.426Z,10
2017-07-21T16:13:10.335Z,10
2017-07-21T16:14:19.940Z,10
2017-07-21T16:15:29.543Z,15
2017-07-21T16:16:39.448Z,15
2017-07-21T16:17:49.075Z,15
2017-07-21T16:18:58.683Z,15
2017-07-21T16:20:08.294Z,15
2017-07-21T16:21:18.524Z,15
2017-07-21T16:22:28.431Z,15
2017-07-21T16:23:38.342Z,15
2017-07-21T16:24:48.591Z,15
2017-07-21T16:25:58.805Z,15
2017-07-21T16:27:08.720Z,15
2017-07-21T16:28:18.630Z,15
2017-07-21T16:29:28.557Z,15
2017-07-21T16:30:38.469Z,15
2017-07-21T16:31:48.723Z,15
2017-07-21T16:32:58.950Z,15
2017-07-21T16:34:08.560Z,15
2017-07-21T16:35:18.168Z,15
2017-07-21T16:36:28.391Z,20
2017-07-21T16:37:38.319Z,20
2017-07-21T16:38:47.921Z,20
2017-07-21T16:39:57.522Z,20